Time;durP1;ratioP1;P1;durP2;ratioP2;P2;SDS_P1;SDS_P2;PMS_P1;PMS_P2;Temp;Humidity;BMP_temperature;BMP_pressure;BME280_temperature;BME280_humidity;BME280_pressure;Samples;Min_cycle;Max_cycle;Signal;HPM_P1;HPM_P2
2022/09/11 00:02:26;;;;;;;;;2.00;2.00;;;;;15.94;90.50;99342.97;6284690;20;2744094;-57
2022/09/11 00:04:54;;;;;;;;;4.00;2.00;;;;;15.78;91.45;99339.91;6285298;20;2750312;-53
2022/09/11 00:07:21;;;;;;;;;2.00;2.00;;;;;15.49;93.15;99343.31;6285794;20;2740919;-52
2022/09/11 00:09:49;;;;;;;;;2.00;2.00;;;;;15.56;93.02;99339.09;6285402;20;2747223;-55
2022/09/11 00:12:17;;;;;;;;;2.00;2.00;;;;;15.50;93.15;99345.00;6284571;20;2746070;-55
2022/09/11 00:14:44;;;;;;;;;2.00;2.00;;;;;15.70;93.11;99345.16;6280589;20;2744045;-51
2022/09/11 00:17:14;;;;;;;;;3.00;3.00;;;;;15.64;92.45;99341.13;6283959;20;2742001;-56
2022/09/11 00:19:42;;;;;;;;;2.00;2.00;;;;;15.68;92.66;99336.28;6284492;20;2746124;-54
2022/09/11 00:22:10;;;;;;;;;2.00;2.00;;;;;15.70;92.01;99339.75;6283020;20;2739832;-55
2022/09/11 00:24:38;;;;;;;;;2.00;2.00;;;;;15.75;91.85;99337.50;6280521;20;2746094;-56
2022/09/11 00:27:05;;;;;;;;;4.00;2.00;;;;;15.43;92.91;99327.63;6284228;20;2737799;-53
2022/09/11 00:29:33;;;;;;;;;1.50;1.50;;;;;15.54;93.36;99319.41;6279933;20;2746119;-53
2022/09/11 00:32:01;;;;;;;;;5.00;3.00;;;;;15.57;92.55;99326.41;6284534;20;2744008;-54
2022/09/11 00:34:29;;;;;;;;;2.00;2.00;;;;;15.56;92.75;99333.66;6284199;20;2744027;-54
2022/09/11 00:36:57;;;;;;;;;2.00;2.00;;;;;15.49;93.33;99326.22;6280173;20;2742027;-53
2022/09/11 00:39:24;;;;;;;;;2.00;2.00;;;;;15.62;92.38;99331.41;6282644;20;2752370;-55
2022/09/11 00:41:52;;;;;;;;;3.00;3.00;;;;;15.56;92.73;99322.84;6281914;20;2734770;-54
2022/09/11 00:44:22;;;;;;;;;2.00;2.00;;;;;15.65;91.97;99325.72;6283076;20;2752335;-54
2022/09/11 00:47:00;;;;;;;;;1.60;1.60;;;;;15.69;91.64;99325.38;6305194;20;2744185;-53
2022/09/11 00:49:36;;;;;;;;;3.00;3.00;;;;;15.66;92.13;99330.13;6281736;20;2737134;-52
2022/09/11 00:52:20;;;;;;;;;2.00;2.00;;;;;15.55;92.42;99329.22;6280849;20;2741993;-55
2022/09/11 00:54:57;;;;;;;;;3.00;3.00;;;;;15.53;92.75;99328.53;6282662;20;2735840;-52
2022/09/11 00:57:33;;;;;;;;;3.00;3.00;;;;;15.53;92.79;99330.34;6283060;20;2730456;-53
2022/09/11 01:00:04;;;;;;;;;4.50;3.00;;;;;15.34;93.61;99331.13;6279928;20;2739830;-54
2022/09/11 01:02:36;;;;;;;;;3.00;3.00;;;;;15.23;93.51;99321.22;6278885;20;2746125;-53
2022/09/11 01:05:06;;;;;;;;;4.00;3.00;;;;;15.32;93.65;99322.28;6281846;20;2742093;-55
2022/09/11 01:07:36;;;;;;;;;3.00;3.00;;;;;15.27;93.85;99328.09;6283109;20;2728459;-54
2022/09/11 01:10:06;;;;;;;;;4.00;3.00;;;;;15.25;94.81;99324.66;6279655;20;2731554;-54
2022/09/11 01:13:03;;;;;;;;;3.00;3.00;;;;;15.20;95.03;99326.06;6279195;20;2752386;-55
2022/09/11 01:16:36;;;;;;;;;3.00;3.00;;;;;15.10;95.33;99332.25;6283876;20;2742069;-55
2022/09/11 01:19:59;;;;;;;;;3.00;3.00;;;;;14.93;96.06;99319.34;6278214;20;2742065;-54
2022/09/11 01:22:41;;;;;;;;;4.00;4.00;;;;;15.04;95.93;99329.22;6282305;20;2754417;-50
2022/09/11 01:25:49;;;;;;;;;4.00;4.00;;;;;14.87;96.09;99315.28;6328411;20;2473175;-56
2022/09/11 01:28:36;;;;;;;;;3.40;3.40;;;;;15.00;95.71;99314.25;6339153;20;2745517;-55
2022/09/11 01:31:11;;;;;;;;;3.00;3.00;;;;;15.15;95.47;99313.78;6314528;20;2749731;-52
2022/09/11 01:34:13;;;;;;;;;3.00;3.00;;;;;14.99;95.48;99316.09;6297182;20;2738803;-56
2022/09/11 01:36:54;;;;;;;;;5.00;5.00;;;;;14.97;95.35;99304.56;6281063;20;2745034;-58
2022/09/11 01:39:38;;;;;;;;;4.00;4.00;;;;;15.11;95.24;99306.94;6284234;20;2735714;-53
2022/09/11 01:42:16;;;;;;;;;4.00;4.00;;;;;15.09;94.90;99295.38;6286041;20;2752354;-53
2022/09/11 01:44:53;;;;;;;;;5.50;3.50;;;;;14.96;95.75;99297.44;6284342;20;2749335;-53
2022/09/11 01:47:22;;;;;;;;;4.00;4.00;;;;;15.10;94.86;99298.94;6282521;20;2750291;-56
2022/09/11 01:50:08;;;;;;;;;4.00;4.00;;;;;14.92;95.36;99293.28;6286601;20;2746090;-55
2022/09/11 01:52:59;;;;;;;;;3.50;3.50;;;;;14.90;95.54;99292.53;6286067;20;2740990;-56
2022/09/11 01:55:40;;;;;;;;;4.00;4.00;;;;;14.99;95.37;99291.75;6282553;20;2749333;-55
2022/09/11 01:58:23;;;;;;;;;5.00;5.00;;;;;14.96;95.97;99292.03;6286846;20;2742962;-56
2022/09/11 02:01:06;;;;;;;;;2.50;2.50;;;;;15.06;95.44;99292.97;6301296;20;1803080;-56
2022/09/11 02:03:50;;;;;;;;;5.00;5.00;;;;;14.85;95.57;99289.38;6316928;20;2748302;-57
2022/09/11 02:06:38;;;;;;;;;5.00;5.00;;;;;14.87;96.07;99303.63;6281872;20;2746094;-52
2022/09/11 02:09:13;;;;;;;;;6.00;5.00;;;;;14.85;96.13;99294.78;6292141;20;2625388;-54
2022/09/11 02:11:44;;;;;;;;;4.00;4.00;;;;;14.85;96.22;99292.97;6284226;20;2750314;-56
2022/09/11 02:14:48;;;;;;;;;4.00;4.00;;;;;14.80;96.47;99303.31;6283799;20;2744029;-56
2022/09/11 02:18:00;;;;;;;;;4.00;4.00;;;;;14.72;96.47;99292.28;6281755;20;2732572;-54
2022/09/11 02:20:30;;;;;;;;;5.00;3.00;;;;;14.73;96.15;99296.69;6280413;20;2753388;-62
2022/09/11 02:22:58;;;;;;;;;4.50;4.50;;;;;14.75;97.12;99294.72;6302201;20;1794608;-61
2022/09/11 02:25:26;;;;;;;;;4.00;4.00;;;;;14.80;95.96;99294.34;6317208;20;2736704;-62
2022/09/11 02:27:54;;;;;;;;;4.00;4.00;;;;;14.77;95.84;99290.06;6285676;20;2747325;-62
2022/09/11 02:30:22;;;;;;;;;4.00;4.00;;;;;14.69;96.26;99285.31;6283137;20;2748170;-61
2022/09/11 02:32:50;;;;;;;;;4.00;4.00;;;;;14.71;95.67;99288.72;6287352;20;2735665;-62
2022/09/11 02:35:17;;;;;;;;;6.00;6.00;;;;;14.60;96.43;99277.13;6280997;20;2748316;-62
2022/09/11 02:38:35;;;;;;;;;4.00;4.00;;;;;14.55;96.44;99279.34;6284836;20;2749243;-62
2022/09/11 02:41:20;;;;;;;;;4.00;3.50;;;;;14.56;96.36;99278.34;6281177;20;2754470;-61
2022/09/11 02:44:41;;;;;;;;;3.00;3.00;;;;;14.54;95.92;99280.34;6283061;20;2750339;-62
2022/09/11 02:47:47;;;;;;;;;4.00;4.00;;;;;14.54;96.53;99280.34;6280908;20;2746105;-62
2022/09/11 02:50:32;;;;;;;;;4.50;4.50;;;;;14.48;96.59;99289.75;6285998;20;2748260;-62
2022/09/11 02:53:39;;;;;;;;;5.00;4.00;;;;;14.52;96.40;99285.84;6282681;20;2754446;-62
2022/09/11 02:56:15;;;;;;;;;4.00;4.00;;;;;14.51;96.64;99281.44;6283420;20;2748341;-62
2022/09/11 02:59:04;;;;;;;;;2.00;2.00;;;;;14.67;95.64;99275.63;6282021;20;2740379;-62
2022/09/11 03:02:00;;;;;;;;;3.00;3.00;;;;;14.43;96.09;99276.66;6287562;20;2740871;-62
2022/09/11 03:04:30;;;;;;;;;6.00;3.00;;;;;14.49;95.99;99286.09;6280957;20;2748256;-62
2022/09/11 03:06:59;;;;;;;;;3.50;3.50;;;;;14.41;96.77;99288.59;6283632;20;2752346;-61
2022/09/11 03:09:26;;;;;;;;;4.00;3.00;;;;;14.42;96.42;99287.59;6284681;20;2744080;-62
2022/09/11 03:11:54;;;;;;;;;4.00;4.00;;;;;14.42;96.41;99290.28;6286108;20;2755533;-61
2022/09/11 03:14:22;;;;;;;;;3.00;3.00;;;;;14.49;96.16;99292.34;6284558;20;2746141;-62
2022/09/11 03:16:49;;;;;;;;;4.00;3.00;;;;;14.37;96.58;99290.66;6280301;20;2754416;-61
2022/09/11 03:19:18;;;;;;;;;2.75;2.75;;;;;14.50;96.10;99304.00;6301366;20;1806671;-61
2022/09/11 03:21:46;;;;;;;;;2.00;2.00;;;;;14.51;95.76;99303.03;6314956;20;2743064;-62
2022/09/11 03:24:15;;;;;;;;;3.00;3.00;;;;;14.41;96.61;99308.34;6285716;20;2733621;-62
2022/09/11 03:26:44;;;;;;;;;3.00;3.00;;;;;14.45;96.30;99307.09;6295666;20;1805595;-62
2022/09/11 03:29:12;;;;;;;;;3.00;3.00;;;;;14.49;96.31;99305.84;6315251;20;2744014;-62
2022/09/11 03:31:41;;;;;;;;;2.00;2.00;;;;;14.38;96.30;99303.22;6298702;20;1789851;-62
2022/09/11 03:34:09;;;;;;;;;3.50;3.00;;;;;14.38;96.29;99310.47;6330154;20;1812577;-62
2022/09/11 03:36:37;;;;;;;;;2.00;2.00;;;;;14.45;96.79;99308.94;6310845;20;2741926;-62
2022/09/11 03:39:05;;;;;;;;;3.50;3.00;;;;;14.43;96.88;99310.94;6283484;20;2734713;-62
2022/09/11 03:41:33;;;;;;;;;3.00;3.00;;;;;14.37;96.95;99300.63;6285590;20;2756501;-62
2022/09/11 03:44:01;;;;;;;;;3.00;3.00;;;;;14.16;97.55;99308.66;6284897;20;2731510;-62
2022/09/11 03:46:28;;;;;;;;;3.00;3.00;;;;;14.39;97.26;99307.59;6277703;20;2734651;-62
2022/09/11 03:48:56;;;;;;;;;2.00;2.00;;;;;14.30;97.47;99315.59;6285358;20;2741952;-62
2022/09/11 03:51:25;;;;;;;;;3.00;3.00;;;;;14.31;97.22;99306.53;6284529;20;2740057;-62
2022/09/11 03:53:52;;;;;;;;;2.50;2.50;;;;;14.31;97.24;99307.41;6284212;20;2735812;-62
2022/09/11 03:56:20;;;;;;;;;3.00;3.00;;;;;14.35;97.39;99313.38;6285722;20;2724450;-61
2022/09/11 03:58:48;;;;;;;;;2.00;2.00;;;;;14.25;96.93;99305.22;6283121;20;2743994;-62
2022/09/11 04:01:18;;;;;;;;;2.50;2.50;;;;;14.13;97.40;99307.06;6283486;20;2730536;-62
2022/09/11 04:03:45;;;;;;;;;3.50;2.50;;;;;14.04;98.04;99307.84;6283998;20;2731567;-62
2022/09/11 04:06:13;;;;;;;;;2.00;2.00;;;;;14.12;98.14;99308.06;6283428;20;2729552;-62
2022/09/11 04:08:41;;;;;;;;;3.00;3.00;;;;;14.23;97.42;99315.28;6285096;20;2744005;-62
2022/09/11 04:11:11;;;;;;;;;2.00;2.00;;;;;14.21;98.11;99312.69;6283387;20;2743995;-62
2022/09/11 04:13:42;;;;;;;;;3.00;3.00;;;;;14.11;98.15;99309.03;6285071;20;2733592;-62
2022/09/11 04:16:15;;;;;;;;;3.00;3.00;;;;;14.14;97.75;99319.59;6280980;20;2727343;-62
2022/09/11 04:18:46;;;;;;;;;2.00;2.00;;;;;14.23;97.62;99313.44;6283605;20;2744001;-62
2022/09/11 04:21:17;;;;;;;;;3.00;3.00;;;;;14.12;97.54;99313.47;6283354;20;2747221;-62
2022/09/11 04:23:52;;;;;;;;;4.00;3.00;;;;;14.22;97.62;99313.56;6283875;20;2739887;-62
2022/09/11 04:26:24;;;;;;;;;2.00;2.00;;;;;14.12;97.99;99318.88;6278115;20;2744025;-62
2022/09/11 04:28:52;;;;;;;;;2.00;2.00;;;;;14.11;99.04;99322.53;6284130;20;2741923;-62
2022/09/11 04:31:21;;;;;;;;;4.00;3.00;;;;;14.12;98.51;99323.41;6286245;20;2731650;-62
2022/09/11 04:33:49;;;;;;;;;3.00;3.00;;;;;14.09;98.17;99321.81;6284873;20;2727353;-62
2022/09/11 04:36:23;;;;;;;;;2.00;2.00;;;;;14.06;98.75;99319.38;6281096;20;2752452;-62
2022/09/11 04:38:56;;;;;;;;;4.00;2.00;;;;;14.19;98.51;99322.78;6282025;20;2732581;-62
2022/09/11 04:41:25;;;;;;;;;3.00;3.00;;;;;14.34;97.62;99317.09;6280634;20;2739885;-62
2022/09/11 04:44:01;;;;;;;;;4.00;4.00;;;;;14.52;96.06;99320.94;6279144;20;2746082;-62
2022/09/11 04:46:33;;;;;;;;;2.00;2.00;;;;;14.46;96.68;99314.22;6283574;20;2731676;-62
2022/09/11 04:49:03;;;;;;;;;2.00;2.00;;;;;14.46;96.58;99311.53;6280260;20;2744003;-63
2022/09/11 04:51:35;;;;;;;;;2.00;2.00;;;;;14.68;96.10;99310.59;6280121;20;2726430;-62
2022/09/11 04:54:04;;;;;;;;;2.00;2.00;;;;;14.56;96.32;99306.25;6282207;20;2723342;-62
2022/09/11 04:56:38;;;;;;;;;3.00;3.00;;;;;14.63;96.22;99302.03;6279360;20;2737279;-62
2022/09/11 04:59:14;;;;;;;;;2.00;2.00;;;;;14.65;96.11;99300.06;6287877;20;2744062;-62
2022/09/11 05:01:43;;;;;;;;;2.00;2.00;;;;;14.58;96.55;99300.69;6286068;20;2748198;-62
2022/09/11 05:04:13;;;;;;;;;2.00;2.00;;;;;14.60;96.62;99301.44;6280478;20;2750371;-63
2022/09/11 05:06:44;;;;;;;;;2.00;2.00;;;;;14.58;95.98;99300.69;6289601;20;2744018;-63
2022/09/11 05:09:30;;;;;;;;;2.00;2.00;;;;;14.74;95.82;99302.94;6283292;20;2735678;-62
2022/09/11 05:11:58;;;;;;;;;1.50;1.50;;;;;14.89;95.73;99299.81;6286433;20;2732534;-62
2022/09/11 05:14:27;;;;;;;;;1.75;1.50;;;;;14.87;95.37;99303.63;6306070;20;1799337;-62
2022/09/11 05:16:55;;;;;;;;;3.00;1.00;;;;;15.06;93.90;99295.66;6318610;20;2731538;-61
2022/09/11 05:19:24;;;;;;;;;1.00;1.00;;;;;15.15;93.81;99296.69;6286717;20;2735840;-61
2022/09/11 05:21:52;;;;;;;;;1.00;1.00;;;;;15.03;93.44;99293.19;6279972;20;2735692;-62
2022/09/11 05:24:20;;;;;;;;;3.00;1.00;;;;;15.04;93.83;99294.94;6286777;20;2734781;-62
2022/09/11 05:26:48;;;;;;;;;1.00;1.00;;;;;15.26;93.76;99293.91;6285657;20;2732678;-63
2022/09/11 05:29:16;;;;;;;;;2.00;2.00;;;;;15.45;92.21;99298.56;6282984;20;2748207;-62
2022/09/11 05:31:44;;;;;;;;;1.50;1.50;;;;;15.41;92.33;99294.44;6305643;20;1801989;-61
2022/09/11 05:34:12;;;;;;;;;2.00;1.50;;;;;15.27;92.80;99300.16;6315724;20;2742039;-62
2022/09/11 05:36:40;;;;;;;;;1.50;1.50;;;;;15.50;92.75;99307.13;6286386;20;2717068;-62
2022/09/11 05:39:09;;;;;;;;;1.25;1.25;;;;;15.55;91.96;99306.72;6302873;20;1803512;-62
2022/09/11 05:41:37;;;;;;;;;1.50;1.00;;;;;15.55;91.89;99304.03;6318866;20;2722177;-62
2022/09/11 05:44:05;;;;;;;;;2.00;2.00;;;;;15.68;92.05;99304.66;6286766;20;2752384;-62
2022/09/11 05:46:33;;;;;;;;;3.50;1.00;;;;;15.68;91.77;99309.22;6289776;20;2728508;-63
2022/09/11 05:49:01;;;;;;;;;1.50;1.50;;;;;15.77;91.05;99312.00;6282780;20;2728381;-62
2022/09/11 05:51:32;;;;;;;;;14.00;11.33;;;;;15.98;90.36;99319.16;6282099;20;2808598;-61
2022/09/11 05:54:00;;;;;;;;;4.00;2.00;;;;;16.36;88.65;99317.56;6318851;20;2747109;-62
2022/09/11 05:56:28;;;;;;;;;2.00;1.00;;;;;16.56;86.78;99319.28;6299929;20;1798412;-62
2022/09/11 05:58:57;;;;;;;;;0.00;0.00;;;;;16.56;87.03;99316.59;6319547;20;2721217;-63
2022/09/11 06:01:27;;;;;;;;;0.00;0.00;;;;;16.40;87.01;99317.16;6285453;20;2726339;-62
2022/09/11 06:03:56;;;;;;;;;0.00;0.00;;;;;16.41;87.13;99309.88;6290548;20;2724739;-62
2022/09/11 06:06:24;;;;;;;;;1.00;1.00;;;;;16.41;87.53;99308.00;6288253;20;2724229;-62
2022/09/11 06:08:52;;;;;;;;;0.00;0.00;;;;;16.34;87.38;99312.25;6289198;20;2711808;-62
2022/09/11 06:11:21;;;;;;;;;0.00;0.00;;;;;16.73;86.72;99312.31;6290883;20;2728370;-62
2022/09/11 06:13:50;;;;;;;;;0.50;0.50;;;;;18.45;79.97;99317.44;6289146;20;2729476;-63
2022/09/11 06:16:24;;;;;;;;;2.00;2.00;;;;;17.39;81.83;99325.09;6285489;20;2739870;-62
2022/09/11 06:18:53;;;;;;;;;1.00;1.00;;;;;18.14;81.18;99325.97;6288640;20;2726325;-62
2022/09/11 06:21:26;;;;;;;;;1.00;1.00;;;;;19.23;75.32;99335.88;6288227;20;2727370;-62
2022/09/11 06:23:53;;;;;;;;;1.00;1.00;;;;;19.58;73.90;99332.19;6290065;20;2727338;-62
2022/09/11 06:26:26;;;;;;;;;1.00;1.00;;;;;21.98;66.43;99345.03;6288395;20;2730479;-62
2022/09/11 06:28:55;;;;;;;;;1.00;1.00;;;;;22.73;61.50;99343.69;6292396;20;2727368;-62
2022/09/11 06:31:26;;;;;;;;;1.00;1.00;;;;;19.57;70.66;99335.09;6318664;20;2731531;-62
2022/09/11 06:33:54;;;;;;;;;1.00;0.00;;;;;20.16;70.37;99336.09;6319342;20;2727362;-61
2022/09/11 06:36:26;;;;;;;;;3.00;1.00;;;;;20.04;70.87;99338.25;6314730;20;2730429;-60
2022/09/11 06:38:56;;;;;;;;;3.67;1.00;;;;;18.42;78.15;99325.91;6315489;20;2731502;-62
2022/09/11 06:41:27;;;;;;;;;1.00;1.00;;;;;18.03;79.28;99336.16;6317188;20;2729473;-61
2022/09/11 06:43:55;;;;;;;;;1.00;1.00;;;;;18.01;80.31;99336.31;6318067;20;2726289;-62
2022/09/11 06:46:25;;;;;;;;;1.50;1.50;;;;;18.23;79.57;99331.50;6312857;20;2731660;-61
2022/09/11 06:48:54;;;;;;;;;1.00;1.00;;;;;18.24;79.20;99325.88;6293520;20;2726299;-62
2022/09/11 06:51:23;;;;;;;;;1.00;1.00;;;;;18.02;80.85;99327.16;6295295;20;2724221;-61
2022/09/11 06:53:57;;;;;;;;;1.00;1.00;;;;;18.53;79.24;99322.13;6313605;20;2720046;-62
2022/09/11 06:56:25;;;;;;;;;1.00;1.00;;;;;18.70;78.04;99328.59;6290817;20;2727514;-62
2022/09/11 06:58:54;;;;;;;;;1.00;1.00;;;;;18.64;77.71;99320.03;6291180;20;2723206;-61
2022/09/11 07:01:23;;;;;;;;;4.33;1.00;;;;;18.86;77.75;99324.19;6294918;20;2729426;-62
2022/09/11 07:03:55;;;;;;;;;2.00;2.00;;;;;18.94;76.67;99323.41;6321885;20;2737754;-61
2022/09/11 07:06:29;;;;;;;;;1.33;1.33;;;;;19.14;75.90;99320.47;6315469;20;2731799;-61
2022/09/11 07:09:01;;;;;;;;;1.33;1.33;;;;;18.92;76.55;99311.81;6315143;20;2735841;-62
2022/09/11 07:11:33;;;;;;;;;2.00;0.00;;;;;18.96;76.03;99318.66;6322558;20;2728429;-62
2022/09/11 07:14:04;;;;;;;;;1.67;1.67;;;;;18.92;76.72;99314.53;6320572;20;2737748;-62
2022/09/11 07:16:34;;;;;;;;;4.33;4.00;;;;;20.37;72.69;99317.41;6317691;20;2756512;-62
2022/09/11 07:19:03;;;;;;;;;2.00;2.00;;;;;22.20;64.36;99316.13;6318027;20;2746488;-63
2022/09/11 07:21:34;;;;;;;;;1.00;1.00;;;;;20.15;71.47;99313.44;6320142;20;2735671;-63
2022/09/11 07:24:03;;;;;;;;;1.67;1.67;;;;;19.78;73.90;99315.66;6317889;20;2743992;-63
2022/09/11 07:26:31;;;;;;;;;1.67;1.67;;;;;19.74;73.01;99315.13;6317446;20;2744022;-63
2022/09/11 07:29:00;;;;;;;;;2.00;2.00;;;;;20.41;72.25;99319.81;6318683;20;2738816;-63
2022/09/11 07:31:31;;;;;;;;;2.00;2.00;;;;;20.35;71.65;99324.91;6319331;20;2752393;-62
2022/09/11 07:34:03;;;;;;;;;2.00;2.00;;;;;20.66;71.41;99316.13;6317780;20;2752413;-62
2022/09/11 07:36:34;;;;;;;;;3.00;3.00;;;;;20.29;70.65;99320.09;6317295;20;2738787;-62
2022/09/11 07:39:03;;;;;;;;;2.00;2.00;;;;;20.20;72.10;99323.00;6318144;20;2744014;-62
2022/09/11 07:41:33;;;;;;;;;3.00;1.33;;;;;20.51;71.09;99323.22;6318632;20;2735706;-62
2022/09/11 07:44:02;;;;;;;;;2.00;2.00;;;;;20.72;70.13;99320.94;6319916;20;2726414;-62
2022/09/11 07:46:31;;;;;;;;;1.00;1.00;;;;;20.78;70.48;99319.41;6314755;20;2724292;-62
2022/09/11 07:49:01;;;;;;;;;2.67;2.67;;;;;20.53;69.56;99323.91;6319306;20;2731585;-62
2022/09/11 07:51:34;;;;;;;;;3.00;3.00;;;;;20.93;69.83;99316.84;6317529;20;2716916;-62
2022/09/11 07:54:03;;;;;;;;;2.00;2.00;;;;;20.94;69.24;99324.88;6342033;20;2750359;-63
2022/09/11 07:56:35;;;;;;;;;4.00;2.33;;;;;21.04;69.25;99324.69;6283057;20;2724245;-62
2022/09/11 07:59:07;;;;;;;;;4.00;2.00;;;;;20.81;68.74;99322.63;6317927;20;2756614;-61
2022/09/11 08:01:36;;;;;;;;;2.67;2.67;;;;;21.10;69.37;99325.91;6317554;20;2731523;-62
2022/09/11 08:04:10;;;;;;;;;2.60;2.60;;;;;21.26;68.22;99329.44;6343884;20;2726429;-61
2022/09/11 08:06:40;;;;;;;;;2.00;2.00;;;;;21.46;67.43;99331.88;6336805;20;2741999;-61
2022/09/11 08:09:13;;;;;;;;;2.33;2.33;;;;;21.29;68.26;99338.34;6319327;20;2736785;-62
2022/09/11 08:11:47;;;;;;;;;1.40;1.40;;;;;20.90;68.30;99339.84;6337351;20;2737792;-62
2022/09/11 08:14:16;;;;;;;;;2.00;2.00;;;;;20.94;67.46;99345.84;6321310;20;2728384;-62
2022/09/11 08:16:45;;;;;;;;;4.00;2.00;;;;;20.96;67.46;99341.09;6318081;20;2727406;-63
2022/09/11 08:19:20;;;;;;;;;1.67;1.67;;;;;21.36;65.96;99339.38;6319499;20;2728369;-62
2022/09/11 08:21:51;;;;;;;;;2.00;2.00;;;;;20.99;67.28;99332.56;6341659;20;2727386;-62
2022/09/11 08:24:23;;;;;;;;;2.00;2.00;;;;;21.37;66.41;99332.84;6338307;20;2744017;-62
2022/09/11 08:26:52;;;;;;;;;2.00;2.00;;;;;21.45;66.24;99331.00;6318528;20;2727522;-61
2022/09/11 08:29:20;;;;;;;;;2.00;2.00;;;;;21.45;66.49;99338.34;6318047;20;2748302;-61
2022/09/11 08:31:50;;;;;;;;;1.67;1.67;;;;;21.77;64.97;99331.09;6318697;20;2744054;-62
2022/09/11 08:34:21;;;;;;;;;3.00;3.00;;;;;21.68;65.39;99333.84;6325234;20;2744035;-61
2022/09/11 08:36:50;;;;;;;;;3.00;3.00;;;;;21.70;65.03;99330.97;6321590;20;2735873;-62
2022/09/11 08:39:19;;;;;;;;;2.67;2.33;;;;;21.79;65.21;99331.78;6323661;20;2730568;-61
2022/09/11 08:42:07;;;;;;;;;4.80;3.00;;;;;22.32;63.99;99327.50;6342614;20;2756593;-61
2022/09/11 08:44:55;;;;;;;;;1.00;1.00;;;;;22.29;64.34;99338.78;6289769;20;2742155;-62
2022/09/11 08:47:33;;;;;;;;;1.33;1.33;;;;;21.88;64.05;99344.38;6323332;20;2727332;-62
2022/09/11 08:50:20;;;;;;;;;0.80;0.80;;;;;22.38;63.09;99334.13;6344865;20;2733602;-62
2022/09/11 08:52:49;;;;;;;;;1.60;1.60;;;;;22.21;62.30;99338.84;6345628;20;2741988;-61
2022/09/11 08:55:38;;;;;;;;;2.00;2.00;;;;;22.17;62.66;99342.91;6345778;20;2737788;-62
2022/09/11 08:58:58;;;;;;;;;1.60;1.60;;;;;21.61;64.17;99351.97;6344354;20;2748307;-62
2022/09/11 09:01:55;;;;;;;;;2.00;2.00;;;;;21.95;62.62;99344.53;6343574;20;2734669;-61
2022/09/11 09:05:00;;;;;;;;;2.00;2.00;;;;;22.38;64.35;99337.75;6323416;20;2744000;-62
2022/09/11 09:07:47;;;;;;;;;1.40;1.40;;;;;22.92;60.91;99345.94;6346045;20;2741961;-61
2022/09/11 09:11:12;;;;;;;;;1.67;0.67;;;;;22.46;61.77;99334.97;6327450;20;2727715;-61
2022/09/11 09:13:54;;;;;;;;;1.00;1.00;;;;;21.89;62.48;99341.50;6334459;20;1802467;-61
2022/09/11 09:16:44;;;;;;;;;1.00;1.00;;;;;22.41;61.59;99344.72;6317190;20;2741912;-61
2022/09/11 09:19:28;;;;;;;;;0.67;0.00;;;;;21.61;63.86;99338.31;6325532;20;2727324;-60
2022/09/11 09:22:22;;;;;;;;;1.20;1.00;;;;;21.08;64.96;99326.06;6342597;20;2741939;-61
2022/09/11 09:24:59;;;;;;;;;4.00;2.00;;;;;21.33;65.82;99336.94;6323408;20;2754526;-62
2022/09/11 09:27:38;;;;;;;;;1.00;1.00;;;;;22.20;65.23;99338.00;6317137;20;2728374;-61
2022/09/11 09:30:22;;;;;;;;;1.60;1.60;;;;;22.35;62.31;99333.47;6340095;20;2752455;-62
2022/09/11 09:33:24;;;;;;;;;2.00;2.00;;;;;22.44;63.82;99328.81;6313007;20;2748197;-62
2022/09/11 09:35:54;;;;;;;;;1.20;1.20;;;;;22.62;62.64;99330.38;6343313;20;2735677;-62
2022/09/11 09:38:28;;;;;;;;;3.40;2.00;;;;;22.43;62.49;99327.09;6346266;20;2740863;-62
2022/09/11 09:41:57;;;;;;;;;2.80;2.00;;;;;22.77;60.93;99323.09;6343589;20;2735849;-61
2022/09/11 09:45:20;;;;;;;;;3.33;2.00;;;;;23.48;59.78;99328.38;6320854;20;2745174;-61
2022/09/11 09:47:50;;;;;;;;;0.60;0.60;;;;;23.53;59.59;99312.22;6342813;20;2726338;-61
2022/09/11 09:50:42;;;;;;;;;1.20;1.20;;;;;22.47;62.25;99328.44;6344911;20;2739866;-61
2022/09/11 09:53:40;;;;;;;;;1.29;1.29;;;;;22.29;63.45;99333.31;6364810;20;3446058;-62
2022/09/11 09:56:16;;;;;;;;;1.80;1.80;;;;;22.37;62.67;99335.16;6339020;20;2739855;-60
2022/09/11 09:59:13;;;;;;;;;2.40;2.00;;;;;22.18;64.29;99339.16;6341935;20;2736733;-61
2022/09/11 10:01:52;;;;;;;;;1.00;1.00;;;;;22.81;62.02;99348.25;6343480;20;2735690;-60
2022/09/11 10:04:25;;;;;;;;;3.00;3.00;;;;;23.04;62.25;99349.16;6346457;20;2731639;-60
2022/09/11 10:07:19;;;;;;;;;3.00;3.00;;;;;22.86;63.04;99352.16;6343639;20;2750315;-61
2022/09/11 10:09:56;;;;;;;;;1.60;1.60;;;;;22.71;63.17;99348.47;6309928;20;2748229;-61
2022/09/11 10:12:30;;;;;;;;;2.40;2.00;;;;;23.03;61.90;99346.56;6310419;20;2732559;-60
2022/09/11 10:15:03;;;;;;;;;1.00;1.00;;;;;22.68;62.02;99346.09;6364516;20;3435678;-62
2022/09/11 10:17:37;;;;;;;;;1.20;1.20;;;;;23.20;61.17;99351.75;6345504;20;2739827;-61
2022/09/11 10:20:17;;;;;;;;;1.40;1.40;;;;;23.04;60.55;99343.66;6340777;20;2741945;-61
2022/09/11 10:22:47;;;;;;;;;2.00;2.00;;;;;23.15;59.89;99342.38;6343796;20;2724198;-61
2022/09/11 10:25:28;;;;;;;;;2.00;2.00;;;;;23.24;59.71;99346.72;6322044;20;2734747;-61
2022/09/11 10:28:18;;;;;;;;;3.40;1.80;;;;;23.00;59.55;99345.91;6342680;20;2731570;-61
2022/09/11 10:30:59;;;;;;;;;2.00;2.00;;;;;23.47;58.65;99351.34;6340402;20;2744008;-60
2022/09/11 10:33:35;;;;;;;;;3.00;3.00;;;;;23.38;58.65;99342.31;6340256;20;2747123;-61
2022/09/11 10:36:08;;;;;;;;;2.60;2.60;;;;;23.52;58.09;99348.91;6309838;20;2739946;-61
2022/09/11 10:38:43;;;;;;;;;2.80;2.80;;;;;23.08;59.48;99333.19;6344686;20;2737768;-61
2022/09/11 10:41:13;;;;;;;;;2.60;2.60;;;;;23.45;59.02;99348.78;6342761;20;2744005;-61
2022/09/11 10:43:59;;;;;;;;;2.20;2.20;;;;;23.45;57.96;99338.66;6344589;20;2743996;-61
2022/09/11 10:46:41;;;;;;;;;2.20;2.20;;;;;22.23;61.47;99331.31;6338826;20;2735676;-60
2022/09/11 10:49:19;;;;;;;;;4.33;2.67;;;;;22.75;60.08;99327.94;6318699;20;2735677;-60
2022/09/11 10:52:07;;;;;;;;;2.20;2.20;;;;;22.18;61.88;99323.59;6345099;20;2737807;-60
2022/09/11 10:55:03;;;;;;;;;4.67;4.00;;;;;22.39;60.70;99317.53;6321710;20;2741951;-61
2022/09/11 10:57:52;;;;;;;;;5.00;5.00;;;;;22.57;60.67;99315.38;6344492;20;2748163;-60
2022/09/11 11:00:26;;;;;;;;;3.00;3.00;;;;;22.55;61.07;99309.22;6285672;20;2744061;-60
2022/09/11 11:03:17;;;;;;;;;2.80;2.80;;;;;23.10;60.29;99301.00;6340927;20;2733601;-60
2022/09/11 11:06:32;;;;;;;;;3.00;3.00;;;;;22.94;61.02;99302.78;6339787;20;2739852;-61
2022/09/11 11:09:40;;;;;;;;;2.60;2.60;;;;;22.89;60.39;99304.38;6344228;20;2735725;-60
2022/09/11 11:12:40;;;;;;;;;4.20;3.40;;;;;23.37;60.45;99307.75;6340761;20;2749238;-60
2022/09/11 11:15:58;;;;;;;;;2.00;2.00;;;;;23.11;59.52;99299.94;6309495;20;2738840;-60
2022/09/11 11:18:45;;;;;;;;;2.00;2.00;;;;;23.02;59.32;99292.84;6342939;20;2724223;-60
2022/09/11 11:21:40;;;;;;;;;1.00;1.00;;;;;22.61;59.40;99285.75;6343354;20;2722169;-60
2022/09/11 11:24:48;;;;;;;;;2.40;2.40;;;;;22.54;59.87;99288.38;6336785;20;2727551;-60
2022/09/11 11:27:32;;;;;;;;;2.20;2.00;;;;;22.41;60.52;99293.59;6343934;20;2747134;-60
2022/09/11 11:31:01;;;;;;;;;2.00;2.00;;;;;22.25;61.29;99296.41;6344000;20;2731542;-61
2022/09/11 11:34:15;;;;;;;;;2.40;2.40;;;;;21.88;62.92;99300.66;6337238;20;2744071;-61
2022/09/11 11:37:06;;;;;;;;;1.60;1.60;;;;;22.04;63.28;99308.81;6337788;20;2746078;-61
2022/09/11 11:40:23;;;;;;;;;1.67;1.33;;;;;22.05;59.90;99305.03;6287779;20;2742074;-61
2022/09/11 11:43:16;;;;;;;;;1.33;1.33;;;;;23.74;57.37;99306.88;6339090;20;2036735;-61
2022/09/11 11:46:01;;;;;;;;;1.33;1.33;;;;;23.54;56.88;99303.81;6287930;20;2734416;-60
2022/09/11 11:48:54;;;;;;;;;1.00;1.00;;;;;22.61;59.48;99296.72;6339621;20;2740033;-61
2022/09/11 11:51:29;;;;;;;;;5.20;3.40;;;;;22.40;61.74;99300.09;6341605;20;2746118;-61
2022/09/11 11:54:19;;;;;;;;;2.80;2.80;;;;;22.22;61.96;99302.25;6309771;20;2755599;-60
2022/09/11 11:57:13;;;;;;;;;3.80;2.00;;;;;21.73;65.26;99302.44;6305388;20;2745032;-61
2022/09/11 12:00:09;;;;;;;;;3.00;3.00;;;;;22.24;65.90;99283.78;6317620;20;2739897;-61
2022/09/11 12:03:11;;;;;;;;;4.20;3.60;;;;;22.26;65.06;99284.47;6337130;20;2749219;-62
2022/09/11 12:05:39;;;;;;;;;2.67;2.67;;;;;21.67;65.91;99287.59;6313870;20;2752356;-60